Time;durP1;ratioP1;P1;durP2;ratioP2;P2;SDS_P1;SDS_P2;PMS_P1;PMS_P2;Temp;Humidity;BMP_temperature;BMP_pressure;BME280_temperature;BME280_humidity;BME280_pressure;Samples;Min_cycle;Max_cycle;Signal;HPM_P1;HPM_P2
2022/07/27 00:00:30;;;;;;;2.60;0.70;;;;;;;13.78;89.42;101987.03;4984815;28;20026;-80
2022/07/27 00:02:56;;;;;;;1.27;0.77;;;;;;;13.79;89.18;101991.44;4968192;28;20540;-82
2022/07/27 00:05:21;;;;;;;1.27;0.68;;;;;;;13.80;89.20;101982.56;4983325;28;20050;-81
2022/07/27 00:07:47;;;;;;;0.90;0.77;;;;;;;13.79;88.89;101982.59;4967552;28;20634;-82
2022/07/27 00:10:13;;;;;;;1.63;0.75;;;;;;;13.79;88.81;101982.59;4975094;28;20076;-82
2022/07/27 00:12:39;;;;;;;1.73;0.75;;;;;;;13.80;88.99;101966.59;4971011;28;20030;-82
2022/07/27 00:15:06;;;;;;;2.10;0.88;;;;;;;13.80;89.12;101976.34;4985155;28;20473;-82
2022/07/27 00:17:31;;;;;;;0.63;0.63;;;;;;;13.82;88.70;101979.81;4985510;28;20027;-82
2022/07/27 00:19:57;;;;;;;0.88;0.75;;;;;;;13.80;88.65;101973.69;4983981;28;20037;-82
2022/07/27 00:22:23;;;;;;;1.50;0.70;;;;;;;13.80;88.58;101979.00;4984187;28;20671;-82
2022/07/27 00:24:49;;;;;;;2.05;1.13;;;;;;;13.78;88.72;101972.91;4984266;28;20042;-82
2022/07/27 00:27:15;;;;;;;2.03;0.70;;;;;;;13.75;88.73;101973.88;4985073;28;20046;-81
2022/07/27 00:29:41;;;;;;;3.60;0.90;;;;;;;13.74;88.54;101971.28;4984331;28;20481;-81
2022/07/27 00:32:07;;;;;;;0.82;0.70;;;;;;;13.73;88.25;101974.88;4967575;28;20509;-81
2022/07/27 00:34:33;;;;;;;1.08;0.80;;;;;;;13.73;88.37;101974.88;4984849;28;20038;-81
2022/07/27 00:36:59;;;;;;;2.47;0.77;;;;;;;13.70;88.17;101976.72;4984901;28;20936;-81
2022/07/27 00:39:24;;;;;;;0.70;0.70;;;;;;;13.71;87.92;101978.47;4984621;28;20030;-82
2022/07/27 00:41:50;;;;;;;1.45;0.70;;;;;;;13.69;88.30;101974.13;4985135;28;20049;-82
2022/07/27 00:44:27;;;;;;;4.25;0.70;;;;;;;13.67;88.11;101984.81;4955015;28;20094;-81
2022/07/27 00:46:53;;;;;;;1.02;0.60;;;;;;;13.64;88.00;101982.31;4966389;28;20412;-82
2022/07/27 00:49:18;;;;;;;0.60;0.60;;;;;;;13.60;87.66;101972.69;4967884;28;20027;-81
2022/07/27 00:51:44;;;;;;;0.82;0.77;;;;;;;13.58;87.77;101971.91;4984065;28;20096;-81
2022/07/27 00:54:10;;;;;;;1.98;0.90;;;;;;;13.56;87.77;101974.63;4985140;28;20359;-81
2022/07/27 00:56:35;;;;;;;4.38;0.90;;;;;;;13.51;87.44;101975.75;4970597;28;20497;-80
2022/07/27 00:59:01;;;;;;;2.35;0.95;;;;;;;13.49;87.53;101972.25;4984412;28;20112;-82
2022/07/27 01:01:26;;;;;;;1.20;0.70;;;;;;;13.46;87.37;101983.03;4984542;28;20061;-82
2022/07/27 01:03:52;;;;;;;1.33;0.77;;;;;;;13.42;87.31;101976.94;4985444;28;20090;-82
2022/07/27 01:06:17;;;;;;;1.45;1.05;;;;;;;13.39;87.63;101977.03;4987970;28;20041;-82
2022/07/27 01:08:43;;;;;;;1.10;0.70;;;;;;;13.35;87.43;101973.63;4988771;28;20034;-82
2022/07/27 01:11:09;;;;;;;1.75;0.70;;;;;;;13.30;87.69;101973.81;4987950;28;20038;-81
2022/07/27 01:13:35;;;;;;;1.38;0.90;;;;;;;13.25;87.83;101978.44;4988812;28;20849;-83
2022/07/27 01:16:04;;;;;;;2.85;1.00;;;;;;;13.18;87.90;101975.16;4986638;28;20048;-81
2022/07/27 01:18:33;;;;;;;1.90;0.73;;;;;;;13.14;87.81;101972.69;4987586;28;20037;-81
2022/07/27 01:21:01;;;;;;;2.22;0.90;;;;;;;13.10;87.86;101985.25;4988646;28;20430;-81
2022/07/27 01:23:26;;;;;;;2.42;1.00;;;;;;;13.07;88.09;101987.16;4987909;28;20084;-81
2022/07/27 01:25:53;;;;;;;1.80;0.85;;;;;;;13.03;87.91;101981.09;4964004;28;20101;-81
2022/07/27 01:28:19;;;;;;;1.85;0.98;;;;;;;12.96;88.24;101976.91;4988795;28;20026;-81
2022/07/27 01:30:44;;;;;;;1.38;1.02;;;;;;;12.92;88.45;101978.81;4971058;28;20037;-81
2022/07/27 01:33:10;;;;;;;3.70;0.75;;;;;;;12.88;88.39;101980.72;4971150;28;20500;-81
2022/07/27 01:35:38;;;;;;;2.70;0.80;;;;;;;12.85;88.64;101975.50;4987329;28;20042;-86
2022/07/27 01:38:08;;;;;;;2.47;1.00;;;;;;;12.82;88.65;101972.09;4954459;28;20022;-81
2022/07/27 01:40:35;;;;;;;1.25;0.90;;;;;;;12.76;88.77;101970.56;4970176;28;20041;-82
2022/07/27 01:43:01;;;;;;;1.50;0.70;;;;;;;12.72;88.82;101971.56;4987941;28;20556;-82
2022/07/27 01:45:27;;;;;;;2.72;0.73;;;;;;;12.69;88.67;101971.69;4987318;28;20053;-82
2022/07/27 01:47:53;;;;;;;2.08;0.80;;;;;;;12.66;88.74;101974.44;4987777;28;20122;-81
2022/07/27 01:50:18;;;;;;;1.25;1.00;;;;;;;12.61;88.70;101964.88;4969338;28;20097;-81
2022/07/27 01:52:46;;;;;;;3.38;1.10;;;;;;;12.56;88.78;101968.59;4986883;28;20038;-81
2022/07/27 01:55:12;;;;;;;1.73;0.68;;;;;;;12.50;88.79;101970.53;4987690;28;20034;-81
2022/07/27 01:57:37;;;;;;;0.65;0.65;;;;;;;12.45;88.68;101963.69;4987365;28;20042;-80
2022/07/27 02:00:12;;;;;;;2.22;0.70;;;;;;;12.39;88.86;101964.78;4970093;28;20030;-82
2022/07/27 02:02:38;;;;;;;1.23;0.93;;;;;;;12.35;88.99;101971.09;4971327;28;20777;-81
2022/07/27 02:05:05;;;;;;;1.85;0.70;;;;;;;12.30;88.87;101965.94;4986602;28;20074;-82
2022/07/27 02:07:30;;;;;;;1.13;0.70;;;;;;;12.27;88.71;101975.81;4988205;28;20035;-82
2022/07/27 02:09:59;;;;;;;2.05;1.10;;;;;;;12.23;88.83;101967.09;4968750;28;20026;-82
2022/07/27 02:12:36;;;;;;;2.25;0.90;;;;;;;12.20;88.83;101964.56;4986418;28;20034;-82
2022/07/27 02:15:09;;;;;;;2.13;0.80;;;;;;;12.15;89.05;101961.19;4969337;28;20039;-82
2022/07/27 02:17:35;;;;;;;1.92;0.75;;;;;;;12.13;89.05;101969.19;4987396;28;20034;-81
2022/07/27 02:20:05;;;;;;;1.08;0.80;;;;;;;12.12;89.22;101963.94;4987419;28;20034;-81
2022/07/27 02:22:30;;;;;;;2.92;1.10;;;;;;;12.09;89.25;101968.44;4972278;28;20030;-82
2022/07/27 02:24:56;;;;;;;1.58;0.82;;;;;;;12.05;89.28;101971.25;4986782;28;22198;-81
2022/07/27 02:27:22;;;;;;;2.60;1.00;;;;;;;12.00;89.44;101962.53;4985824;28;20048;-81
2022/07/27 02:29:47;;;;;;;4.00;1.10;;;;;;;11.96;89.48;101967.06;4987072;28;20460;-80
2022/07/27 02:32:13;;;;;;;1.95;0.88;;;;;;;11.94;89.67;101959.16;4986518;28;20038;-82
2022/07/27 02:34:38;;;;;;;1.00;0.98;;;;;;;11.91;89.68;101953.97;4986822;28;20566;-82
2022/07/27 02:37:04;;;;;;;2.42;1.27;;;;;;;11.91;90.06;101958.38;4986785;28;20330;-82
2022/07/27 02:39:29;;;;;;;1.15;0.93;;;;;;;11.88;89.96;101955.84;4969217;28;20037;-81
2022/07/27 02:41:55;;;;;;;3.40;1.00;;;;;;;11.86;89.93;101950.59;4987307;28;20117;-81
2022/07/27 02:44:21;;;;;;;1.65;1.17;;;;;;;11.85;90.59;101953.28;4986825;28;20375;-81
2022/07/27 02:46:46;;;;;;;2.10;1.17;;;;;;;11.82;90.41;101960.44;4986976;28;20030;-81
2022/07/27 02:49:11;;;;;;;2.00;0.80;;;;;;;11.79;90.71;101957.91;4986738;28;20117;-81
2022/07/27 02:51:37;;;;;;;2.05;1.00;;;;;;;11.76;90.82;101955.34;4968058;28;20109;-81
2022/07/27 02:54:03;;;;;;;2.25;0.93;;;;;;;11.75;90.74;101958.91;4969001;28;20129;-81
2022/07/27 02:56:28;;;;;;;2.58;0.90;;;;;;;11.75;90.98;101952.72;4986742;28;20137;-81
2022/07/27 02:58:54;;;;;;;2.25;1.00;;;;;;;11.75;91.13;101950.06;4986248;28;20162;-81
2022/07/27 03:01:20;;;;;;;4.13;0.70;;;;;;;11.76;91.15;101954.47;4986395;28;20040;-81
2022/07/27 03:03:46;;;;;;;2.75;1.02;;;;;;;11.78;91.22;101952.63;4985517;28;20152;-81
2022/07/27 03:06:11;;;;;;;1.83;0.77;;;;;;;11.78;91.26;101956.13;4986687;28;20374;-81
2022/07/27 03:08:37;;;;;;;1.80;1.00;;;;;;;11.80;91.05;101950.78;4968937;28;21359;-81
2022/07/27 03:11:03;;;;;;;1.15;1.00;;;;;;;11.80;91.25;101956.97;4967993;28;20065;-81
2022/07/27 03:13:30;;;;;;;2.85;1.08;;;;;;;11.82;91.21;101960.44;4986389;28;20037;-81
2022/07/27 03:15:56;;;;;;;2.67;1.13;;;;;;;11.83;91.31;101958.66;4967691;28;20037;-80
2022/07/27 03:18:21;;;;;;;4.32;1.02;;;;;;;11.83;91.16;101953.34;4985952;28;20033;-81
2022/07/27 03:20:47;;;;;;;0.93;0.88;;;;;;;11.85;91.33;101955.94;4985730;28;21342;-81
2022/07/27 03:23:13;;;;;;;1.25;0.95;;;;;;;11.85;91.39;101964.78;4986575;28;20077;-81
2022/07/27 03:25:38;;;;;;;1.73;1.00;;;;;;;11.87;91.43;101962.94;4985168;28;20435;-82
2022/07/27 03:28:04;;;;;;;3.97;1.00;;;;;;;11.87;91.27;101954.13;4984977;28;21466;-82
2022/07/27 03:30:31;;;;;;;1.63;1.00;;;;;;;11.86;91.49;101955.91;4960358;28;20034;-81
2022/07/27 03:32:57;;;;;;;1.30;0.90;;;;;;;11.85;91.21;101954.16;4985860;28;20033;-82
2022/07/27 03:35:22;;;;;;;2.20;0.90;;;;;;;11.85;91.31;101955.94;4968306;28;20036;-82
2022/07/27 03:37:48;;;;;;;4.50;1.25;;;;;;;11.82;91.39;101954.25;4970941;28;20056;-82
2022/07/27 03:40:13;;;;;;;3.63;1.10;;;;;;;11.82;91.64;101955.13;4986152;28;20030;-82
2022/07/27 03:42:39;;;;;;;2.03;1.00;;;;;;;11.81;91.59;101956.06;4968679;28;20481;-82
2022/07/27 03:45:05;;;;;;;1.15;1.00;;;;;;;11.82;91.80;101959.56;4985632;28;20500;-81
2022/07/27 03:47:31;;;;;;;2.10;1.30;;;;;;;11.83;92.10;101961.31;4984793;28;20661;-82
2022/07/27 03:49:56;;;;;;;3.10;1.10;;;;;;;11.85;92.30;101958.59;4986915;28;20508;-81
2022/07/27 03:52:22;;;;;;;1.63;1.10;;;;;;;11.86;92.12;101961.22;4986421;28;20413;-81
2022/07/27 03:54:48;;;;;;;3.55;1.15;;;;;;;11.88;92.38;101971.78;4971711;28;20397;-81
2022/07/27 03:57:13;;;;;;;3.13;1.10;;;;;;;11.91;92.62;101969.88;4984792;28;20046;-82
2022/07/27 03:59:39;;;;;;;3.20;1.42;;;;;;;11.93;92.50;101975.16;4986294;28;20035;-82
2022/07/27 04:02:07;;;;;;;1.40;1.10;;;;;;;11.93;92.49;101981.31;4985048;28;20117;-81
2022/07/27 04:04:33;;;;;;;1.90;1.10;;;;;;;11.94;92.49;101979.53;4985434;28;20052;-81
2022/07/27 04:06:58;;;;;;;1.45;1.20;;;;;;;11.92;92.30;101976.94;4985737;28;20050;-81
2022/07/27 04:09:24;;;;;;;2.30;1.23;;;;;;;11.93;92.42;101977.81;4986280;28;20125;-81
2022/07/27 04:11:50;;;;;;;1.52;1.20;;;;;;;11.94;92.44;101979.53;4984806;28;20030;-82
2022/07/27 04:14:18;;;;;;;0.98;0.90;;;;;;;11.95;92.80;101974.16;4967708;28;20485;-81
2022/07/27 04:16:43;;;;;;;2.08;1.13;;;;;;;11.99;93.28;101982.88;4985641;28;20051;-82
2022/07/27 04:19:08;;;;;;;1.80;1.30;;;;;;;12.03;94.03;101978.34;4985643;28;20043;-82
2022/07/27 04:21:34;;;;;;;4.05;1.20;;;;;;;12.06;93.97;101981.81;4985757;28;20030;-81
2022/07/27 04:24:03;;;;;;;6.00;1.40;;;;;;;12.11;94.04;101980.78;4985811;28;20019;-81
2022/07/27 04:26:29;;;;;;;4.18;1.30;;;;;;;12.15;94.57;101983.28;4986234;28;20117;-81
2022/07/27 04:28:55;;;;;;;1.67;0.90;;;;;;;12.20;94.64;101980.47;4967601;28;20037;-82
2022/07/27 04:31:21;;;;;;;2.30;1.20;;;;;;;12.26;94.78;101982.06;4966665;28;20041;-82
2022/07/27 04:33:46;;;;;;;1.77;0.90;;;;;;;12.31;94.59;101983.63;4984949;28;20041;-82
2022/07/27 04:36:12;;;;;;;3.28;1.60;;;;;;;12.39;95.35;101985.13;4985919;28;20039;-82
2022/07/27 04:38:38;;;;;;;2.33;1.15;;;;;;;12.46;95.29;101991.97;4986065;28;20034;-81
2022/07/27 04:41:03;;;;;;;2.95;1.10;;;;;;;12.52;95.65;101993.56;4988775;28;20083;-82
2022/07/27 04:43:29;;;;;;;2.60;1.10;;;;;;;12.57;95.51;101994.25;4989764;28;20081;-82
2022/07/27 04:45:54;;;;;;;2.55;1.15;;;;;;;12.65;95.69;101991.31;4987269;28;20044;-83
2022/07/27 04:48:20;;;;;;;1.42;1.33;;;;;;;12.69;95.82;101991.16;4989443;28;20022;-82
2022/07/27 04:50:46;;;;;;;3.38;1.20;;;;;;;12.71;95.31;101991.09;4988720;28;20397;-81
2022/07/27 04:53:13;;;;;;;2.40;1.10;;;;;;;12.72;94.85;101998.16;4989929;28;20034;-82
2022/07/27 04:55:42;;;;;;;2.83;1.20;;;;;;;12.74;94.89;101999.81;4988654;28;20750;-82
2022/07/27 04:58:08;;;;;;;1.85;1.25;;;;;;;12.75;95.07;101998.91;4979168;28;20046;-83
2022/07/27 05:00:34;;;;;;;2.05;1.33;;;;;;;12.81;95.17;102002.25;4991326;28;20022;-80
2022/07/27 05:02:59;;;;;;;2.90;1.27;;;;;;;12.83;95.16;102003.94;4973395;28;20034;-82
2022/07/27 05:05:25;;;;;;;2.83;1.15;;;;;;;12.86;95.48;102009.13;4988213;28;20050;-82
2022/07/27 05:07:50;;;;;;;3.35;1.08;;;;;;;12.88;95.88;102002.00;4988551;28;20073;-81
2022/07/27 05:10:19;;;;;;;3.13;1.00;;;;;;;12.89;95.88;101997.53;4988866;28;20117;-82
2022/07/27 05:12:46;;;;;;;2.05;1.20;;;;;;;12.90;96.35;102012.53;4988657;28;20109;-81
2022/07/27 05:15:17;;;;;;;2.65;1.20;;;;;;;12.92;96.07;102007.19;4987466;28;20070;-81
2022/07/27 05:17:42;;;;;;;1.30;1.20;;;;;;;12.95;96.50;102012.38;4988252;28;20658;-81
2022/07/27 05:20:09;;;;;;;1.92;1.25;;;;;;;12.97;96.53;102013.19;4988252;28;20041;-82
2022/07/27 05:22:34;;;;;;;1.25;1.08;;;;;;;12.98;96.61;102014.94;4987959;28;20120;-81
2022/07/27 05:25:00;;;;;;;2.88;1.30;;;;;;;13.01;96.75;102014.81;4974369;28;20038;-81
2022/07/27 05:27:26;;;;;;;1.23;1.13;;;;;;;13.03;96.77;102020.94;4988490;28;20037;-81
2022/07/27 05:29:52;;;;;;;2.75;1.30;;;;;;;13.08;96.74;102011.00;4988562;28;20026;-82
2022/07/27 05:32:17;;;;;;;4.78;1.27;;;;;;;13.13;97.22;102017.00;4987732;28;20037;-80
2022/07/27 05:34:44;;;;;;;3.55;1.30;;;;;;;13.20;96.81;102011.47;4988606;28;20029;-81
2022/07/27 05:37:11;;;;;;;1.90;1.00;;;;;;;13.26;96.89;102016.56;4989490;28;20092;-81
2022/07/27 05:39:37;;;;;;;1.75;1.00;;;;;;;13.36;96.83;102011.75;4988799;28;20040;-80
2022/07/27 05:42:03;;;;;;;3.90;1.27;;;;;;;13.44;96.23;102007.88;4986964;28;20026;-82
2022/07/27 05:44:29;;;;;;;2.20;1.00;;;;;;;13.54;95.50;102007.53;4987167;28;20458;-81
2022/07/27 05:46:55;;;;;;;4.60;1.00;;;;;;;13.64;94.79;102019.56;4988106;28;20048;-80
2022/07/27 05:49:21;;;;;;;1.20;1.00;;;;;;;13.75;94.62;102011.13;4988964;28;20026;-80
2022/07/27 05:51:47;;;;;;;2.15;0.80;;;;;;;13.85;93.36;102022.28;4986230;28;20045;-80
2022/07/27 05:54:12;;;;;;;2.42;0.93;;;;;;;13.96;92.80;102025.34;4971071;28;20084;-81
2022/07/27 05:56:38;;;;;;;0.88;0.80;;;;;;;14.15;92.88;102029.06;4987900;28;20067;-81
2022/07/27 05:59:04;;;;;;;3.67;0.90;;;;;;;14.31;92.00;102031.94;4970151;28;20499;-81
2022/07/27 06:01:29;;;;;;;1.38;0.75;;;;;;;14.46;91.60;102039.28;4970513;28;20785;-81
2022/07/27 06:03:55;;;;;;;2.35;0.90;;;;;;;14.67;90.91;102031.28;4988063;28;20789;-80
2022/07/27 06:09:05;;;;;;;1.33;1.00;;;;;;;15.14;89.55;102039.94;4987941;28;20045;-81
2022/07/27 06:11:30;;;;;;;0.70;0.70;;;;;;;15.38;88.68;102037.03;4987627;28;20030;-81
2022/07/27 06:13:56;;;;;;;1.45;0.80;;;;;;;15.59;86.39;102040.50;4969531;28;20520;-81
2022/07/27 06:16:22;;;;;;;4.95;1.05;;;;;;;15.78;86.62;102039.59;4987739;28;20382;-81
2022/07/27 06:18:48;;;;;;;2.47;0.82;;;;;;;15.96;85.93;102048.59;4987785;28;20477;-81
2022/07/27 06:21:13;;;;;;;3.50;1.08;;;;;;;16.13;85.40;102040.56;4986626;28;20018;-80
2022/07/27 06:23:39;;;;;;;2.50;0.95;;;;;;;16.34;84.82;102037.75;4987677;28;20389;-81
2022/07/27 06:26:04;;;;;;;2.05;0.90;;;;;;;16.52;83.35;102040.44;4989137;28;20568;-84
2022/07/27 06:28:30;;;;;;;1.35;0.65;;;;;;;16.71;83.29;102045.69;4989388;28;20121;-82
2022/07/27 06:30:56;;;;;;;3.03;0.70;;;;;;;16.94;82.75;102052.50;4990018;28;20053;-83
2022/07/27 06:33:26;;;;;;;1.67;0.70;;;;;;;17.17;81.90;102050.41;4988877;28;20527;-84
2022/07/27 06:35:56;;;;;;;0.90;0.90;;;;;;;17.35;80.90;102042.31;4990633;28;20123;-87
2022/07/27 06:38:23;;;;;;;0.73;0.63;;;;;;;17.45;80.04;102043.56;4989601;28;20038;-86
2022/07/27 06:40:51;;;;;;;2.28;0.70;;;;;;;17.56;79.76;102047.44;4968870;28;20022;-86
2022/07/27 06:43:27;;;;;;;0.65;0.50;;;;;;;17.68;78.50;102046.75;4987748;28;20019;-82
2022/07/27 06:45:53;;;;;;;1.48;0.70;;;;;;;17.92;79.38;102057.00;4970468;28;20033;-81
2022/07/27 06:48:22;;;;;;;1.02;0.50;;;;;;;18.01;78.40;102052.91;4987207;28;20037;-83
2022/07/27 06:50:48;;;;;;;1.48;0.77;;;;;;;18.02;77.04;102050.16;4970632;28;20042;-83
2022/07/27 06:53:17;;;;;;;0.88;0.60;;;;;;;18.18;77.61;102044.81;4988328;28;20100;-82
2022/07/27 06:55:43;;;;;;;0.95;0.60;;;;;;;18.36;76.84;102058.06;4986631;28;20483;-82
2022/07/27 06:58:08;;;;;;;0.73;0.70;;;;;;;18.49;75.20;102050.16;4987534;28;20152;-83
2022/07/27 07:00:34;;;;;;;1.73;0.70;;;;;;;18.49;75.51;102052.84;4986324;28;20029;-85
2022/07/27 07:03:02;;;;;;;0.50;0.50;;;;;;;18.60;75.71;102054.88;4989034;28;20034;-85
2022/07/27 07:05:28;;;;;;;0.73;0.57;;;;;;;18.71;74.39;102051.53;4992467;28;20124;-86
2022/07/27 07:07:57;;;;;;;3.42;0.80;;;;;;;18.81;72.61;102055.38;4973504;28;20093;-87
2022/07/27 07:10:23;;;;;;;0.93;0.80;;;;;;;18.81;71.58;102052.72;4991579;28;20064;-88
2022/07/27 07:12:54;;;;;;;1.75;0.80;;;;;;;18.95;73.55;102053.69;4988850;28;20489;-87
2022/07/27 07:15:25;;;;;;;0.60;0.60;;;;;;;19.17;72.56;102053.19;4986459;28;21438;-87
2022/07/27 07:17:51;;;;;;;0.98;0.60;;;;;;;19.23;71.55;102050.13;4972969;28;20500;-86
2022/07/27 07:20:17;;;;;;;1.13;0.70;;;;;;;19.28;70.71;102055.19;4989613;28;20049;-84
2022/07/27 07:22:42;;;;;;;0.65;0.60;;;;;;;19.17;69.25;102063.09;4979918;28;20030;-87
2022/07/27 07:25:08;;;;;;;0.63;0.63;;;;;;;18.95;70.54;102059.03;4990802;28;20057;-87
2022/07/27 07:27:33;;;;;;;0.70;0.70;;;;;;;18.69;70.69;102058.81;4987848;28;20493;-87
2022/07/27 07:29:59;;;;;;;0.70;0.70;;;;;;;18.51;70.70;102060.81;4989842;28;20038;-85
2022/07/27 07:32:25;;;;;;;0.93;0.52;;;;;;;18.21;71.14;102061.66;4989034;28;20025;-85
2022/07/27 07:34:51;;;;;;;0.68;0.68;;;;;;;18.02;71.57;102063.56;4987141;28;20034;-87
2022/07/27 07:37:18;;;;;;;1.70;0.80;;;;;;;18.04;71.03;102074.19;4987929;28;20049;-86
2022/07/27 07:39:46;;;;;;;2.10;0.60;;;;;;;18.09;71.56;102072.13;4989021;28;20045;-86
2022/07/27 07:42:12;;;;;;;2.17;0.77;;;;;;;18.23;71.28;102074.00;4988716;28;20687;-84
2022/07/27 07:44:38;;;;;;;0.40;0.40;;;;;;;18.43;71.40;102070.13;4971691;28;20057;-85
2022/07/27 07:47:04;;;;;;;0.55;0.55;;;;;;;18.63;70.56;102072.59;4988060;28;20041;-84
2022/07/27 07:49:29;;;;;;;2.22;0.70;;;;;;;18.76;70.51;102064.66;4989066;28;20030;-86
2022/07/27 07:51:55;;;;;;;0.95;0.75;;;;;;;18.96;69.36;102079.53;4985732;28;20103;-86
2022/07/27 07:54:20;;;;;;;1.48;0.75;;;;;;;19.31;69.12;102073.81;4987022;28;20030;-89
2022/07/27 07:56:46;;;;;;;0.57;0.57;;;;;;;19.48;68.70;102072.75;4971371;28;20124;-84
2022/07/27 07:59:11;;;;;;;1.27;0.65;;;;;;;19.35;66.97;102077.16;4974183;28;20453;-84
2022/07/27 08:01:37;;;;;;;1.70;0.50;;;;;;;19.17;65.79;102085.41;4986239;28;20470;-87
2022/07/27 08:04:03;;;;;;;2.10;0.75;;;;;;;18.98;67.40;102080.31;4986600;28;20034;-84
2022/07/27 08:06:29;;;;;;;2.65;0.60;;;;;;;18.88;67.95;102071.94;4986429;28;20399;-84
2022/07/27 08:08:54;;;;;;;1.58;0.60;;;;;;;18.64;66.83;102090.41;4986218;28;20061;-85
2022/07/27 08:11:20;;;;;;;0.82;0.82;;;;;;;18.24;69.98;102094.50;4985979;28;20630;-86
2022/07/27 08:13:45;;;;;;;0.70;0.70;;;;;;;17.83;71.60;102108.41;4969317;28;20034;-83
2022/07/27 08:16:11;;;;;;;1.45;0.82;;;;;;;17.57;72.90;102102.69;4987595;28;20141;-85
2022/07/27 08:18:37;;;;;;;1.70;0.90;;;;;;;17.33;73.90;102111.13;4985906;28;20026;-84
2022/07/27 08:21:02;;;;;;;0.63;0.60;;;;;;;17.21;74.82;102110.84;4986242;28;20045;-83
2022/07/27 08:23:30;;;;;;;2.10;0.70;;;;;;;17.23;75.09;102111.63;4986080;28;20038;-82
2022/07/27 08:25:56;;;;;;;2.85;0.73;;;;;;;17.15;75.29;102103.16;4984168;28;20532;-83
2022/07/27 08:28:24;;;;;;;1.77;0.80;;;;;;;17.18;75.78;102112.81;4984392;28;20034;-84
2022/07/27 08:30:50;;;;;;;0.73;0.70;;;;;;;17.16;75.67;102112.91;4986723;28;20544;-84
2022/07/27 08:33:16;;;;;;;4.47;1.02;;;;;;;17.14;75.07;102117.47;4983962;28;20034;-84
2022/07/27 08:35:41;;;;;;;0.80;0.80;;;;;;;17.20;75.29;102113.59;4985925;28;20049;-83
2022/07/27 08:38:08;;;;;;;3.05;1.00;;;;;;;17.19;75.17;102114.53;4986170;28;20058;-83
2022/07/27 08:40:34;;;;;;;3.10;0.73;;;;;;;17.18;74.54;102124.41;4968571;28;20046;-84
2022/07/27 08:43:00;;;;;;;1.27;0.80;;;;;;;17.23;74.55;102126.81;4984042;28;20670;-85
2022/07/27 08:45:26;;;;;;;1.95;0.80;;;;;;;17.21;73.50;102120.69;4966965;28;20465;-82
2022/07/27 08:47:52;;;;;;;2.70;1.00;;;;;;;17.16;73.01;102115.56;4986563;28;20041;-83
2022/07/27 08:50:22;;;;;;;1.52;0.70;;;;;;;17.08;72.81;102112.44;4985512;28;20038;-84
2022/07/27 08:52:59;;;;;;;2.15;0.82;;;;;;;17.03;72.34;102112.69;4968224;28;20041;-83
2022/07/27 08:55:26;;;;;;;2.50;1.00;;;;;;;16.96;72.85;102114.78;4986223;28;20030;-84
2022/07/27 08:57:52;;;;;;;2.85;0.70;;;;;;;16.94;73.09;102114.00;4986034;28;20037;-81
2022/07/27 09:00:18;;;;;;;1.35;0.68;;;;;;;16.93;73.02;102114.06;4985158;28;20039;-80
2022/07/27 09:02:47;;;;;;;1.35;0.85;;;;;;;16.96;73.53;102113.94;4967041;28;20065;-82
2022/07/27 09:05:13;;;;;;;2.58;0.70;;;;;;;17.02;73.86;102119.00;4967723;28;20105;-83
2022/07/27 09:07:38;;;;;;;0.82;0.60;;;;;;;17.01;73.42;102116.38;4984715;28;20042;-85
2022/07/27 09:10:05;;;;;;;0.95;0.73;;;;;;;16.88;73.37;102122.34;4954736;28;20589;-77
2022/07/27 09:12:31;;;;;;;0.80;0.80;;;;;;;16.92;74.05;102121.25;4967345;28;20034;-77
2022/07/27 09:15:13;;;;;;;1.02;0.75;;;;;;;16.96;74.41;102116.59;4964972;28;20033;-76
2022/07/27 09:17:43;;;;;;;1.65;0.85;;;;;;;17.13;74.63;102122.91;4982922;28;20552;-76
2022/07/27 09:20:11;;;;;;;1.70;0.70;;;;;;;17.25;74.51;102122.25;4984553;28;20470;-75
2022/07/27 09:22:37;;;;;;;2.92;1.08;;;;;;;17.44;74.77;102118.59;4983253;28;20034;-76
2022/07/27 09:25:03;;;;;;;0.98;0.77;;;;;;;17.59;74.42;102112.38;4984978;28;20042;-76
2022/07/27 09:27:29;;;;;;;3.47;1.00;;;;;;;17.73;74.21;102113.44;4987515;28;20170;-79
2022/07/27 09:30:07;;;;;;;1.13;0.80;;;;;;;17.88;73.71;102109.03;4969941;28;20038;-76
2022/07/27 09:32:34;;;;;;;3.10;1.20;;;;;;;18.01;73.80;102102.03;4956888;28;20034;-77
2022/07/27 09:35:17;;;;;;;3.53;0.70;;;;;;;18.11;72.88;102106.88;4986930;28;20176;-76
2022/07/27 09:37:42;;;;;;;1.10;0.52;;;;;;;18.07;73.02;102108.03;4987698;28;20030;-80
2022/07/27 09:40:19;;;;;;;1.35;0.73;;;;;;;18.12;70.47;102116.63;4970469;28;20478;-77
2022/07/27 09:42:45;;;;;;;3.22;0.60;;;;;;;18.36;71.34;102110.81;4972849;28;20171;-77
2022/07/27 09:45:32;;;;;;;0.88;0.60;;;;;;;18.77;69.04;102114.66;4987832;28;20082;-76
2022/07/27 09:48:17;;;;;;;1.30;0.60;;;;;;;19.04;66.26;102106.78;4987710;28;20030;-76
2022/07/27 09:50:58;;;;;;;2.08;0.70;;;;;;;19.11;64.87;102113.50;4975441;28;20060;-77
2022/07/27 09:53:27;;;;;;;2.00;0.50;;;;;;;19.03;64.30;102112.25;4987088;28;20820;-76
2022/07/27 09:56:14;;;;;;;2.05;0.88;;;;;;;18.85;63.63;102110.56;4987650;28;20797;-75
2022/07/27 09:58:52;;;;;;;1.70;0.70;;;;;;;18.77;65.24;102114.66;4978619;28;20063;-75
2022/07/27 10:01:20;;;;;;;1.58;0.60;;;;;;;18.64;66.76;102127.94;4987318;28;20035;-76
2022/07/27 10:03:47;;;;;;;1.02;0.55;;;;;;;18.41;67.04;102127.50;4987581;28;20034;-76
2022/07/27 10:06:13;;;;;;;1.00;0.77;;;;;;;18.18;66.99;102121.66;4985977;28;20046;-76
2022/07/27 10:08:42;;;;;;;2.85;0.60;;;;;;;18.03;67.75;102126.06;4986668;28;20046;-77
2022/07/27 10:11:08;;;;;;;4.93;0.80;;;;;;;17.90;67.69;102125.88;4986546;28;20034;-76
2022/07/27 10:13:34;;;;;;;0.93;0.70;;;;;;;17.81;68.34;102129.06;4986379;28;20041;-76
2022/07/27 10:16:03;;;;;;;0.98;0.55;;;;;;;17.73;68.14;102132.16;4986532;28;20038;-77
2022/07/27 10:18:38;;;;;;;1.13;0.77;;;;;;;17.78;68.32;102133.63;4983909;28;20058;-74
2022/07/27 10:21:06;;;;;;;1.48;1.23;;;;;;;17.99;67.85;102129.84;4968993;28;20383;-77
2022/07/27 10:23:34;;;;;;;2.17;0.90;;;;;;;18.19;67.35;102131.41;4985319;28;20141;-77
2022/07/27 10:26:20;;;;;;;0.93;0.60;;;;;;;18.26;64.96;102134.63;4985967;28;20041;-77
2022/07/27 10:28:58;;;;;;;2.55;1.00;;;;;;;18.35;64.33;102126.03;4987119;28;20034;-82
2022/07/27 10:31:28;;;;;;;3.83;0.80;;;;;;;18.38;62.18;102123.19;4987799;28;20030;-82
2022/07/27 10:33:56;;;;;;;2.33;0.90;;;;;;;18.50;62.62;102121.59;4969506;28;20033;-81
2022/07/27 10:36:27;;;;;;;1.45;0.80;;;;;;;18.51;62.13;102114.41;4986536;28;20034;-81
2022/07/27 10:38:57;;;;;;;0.93;0.60;;;;;;;18.56;62.75;102118.56;4967606;28;20221;-80
2022/07/27 10:41:30;;;;;;;1.35;0.70;;;;;;;18.61;62.42;102115.59;4969674;28;20030;-80
2022/07/27 10:44:13;;;;;;;1.83;0.70;;;;;;;18.68;62.46;102113.41;4969107;28;20042;-82
2022/07/27 10:47:03;;;;;;;1.77;0.80;;;;;;;18.78;61.74;102111.88;4986600;28;20088;-82
2022/07/27 10:49:33;;;;;;;2.60;0.70;;;;;;;18.93;62.24;102109.22;4975910;28;20049;-77
2022/07/27 10:51:59;;;;;;;1.67;0.75;;;;;;;19.01;62.48;102109.63;4961307;28;20157;-76
2022/07/27 10:54:35;;;;;;;1.83;0.70;;;;;;;19.12;62.65;102115.22;4968393;28;20049;-77
2022/07/27 10:57:03;;;;;;;0.70;0.60;;;;;;;19.19;62.53;102106.78;4986760;28;20184;-77
2022/07/27 10:59:42;;;;;;;2.05;0.73;;;;;;;19.13;61.88;102116.94;4986996;28;20485;-75
2022/07/27 11:02:18;;;;;;;0.75;0.65;;;;;;;19.02;61.01;102116.78;4985456;28;20045;-79
2022/07/27 11:04:47;;;;;;;0.68;0.60;;;;;;;18.90;62.18;102110.28;4946747;28;20520;-77
2022/07/27 11:07:16;;;;;;;1.27;0.52;;;;;;;18.81;61.33;102119.78;4966477;28;20128;-79
2022/07/27 11:09:42;;;;;;;0.38;0.38;;;;;;;18.84;59.97;102114.19;4966477;28;20073;-78
2022/07/27 11:12:09;;;;;;;0.40;0.35;;;;;;;18.94;59.78;102119.88;4965194;28;20125;-76
2022/07/27 11:14:49;;;;;;;0.75;0.73;;;;;;;19.20;57.91;102109.38;4966531;28;20085;-78
2022/07/27 11:17:17;;;;;;;2.15;0.77;;;;;;;19.38;59.59;102115.44;4967554;28;20126;-78
2022/07/27 11:19:42;;;;;;;0.50;0.50;;;;;;;19.48;58.95;102114.81;4967084;28;20030;-79
2022/07/27 11:22:08;;;;;;;0.63;0.50;;;;;;;19.37;58.50;102120.88;4965703;28;20386;-79
2022/07/27 11:24:37;;;;;;;1.02;0.68;;;;;;;19.20;58.28;102116.56;4966413;28;20035;-77
2022/07/27 11:27:03;;;;;;;0.55;0.38;;;;;;;19.04;59.17;102105.91;4966813;28;20034;-77